sensor_id;sensor_type;location;lat;lon;timestamp;pressure;altitude;pressure_sealevel;temperature;humidity
21869;BME280;11099;41.564;23.296;2024-03-07T00:02:21;97469.97;;;14.49;100.00
21869;BME280;11099;41.564;23.296;2024-03-07T00:04:49;97542.75;;;14.52;100.00
21869;BME280;11099;41.564;23.296;2024-03-07T00:07:19;97515.94;;;14.85;100.00
21869;BME280;11099;41.564;23.296;2024-03-07T00:09:47;97498.22;;;14.47;100.00
21869;BME280;11099;41.564;23.296;2024-03-07T00:12:16;97449.91;;;14.22;100.00
21869;BME280;11099;41.564;23.296;2024-03-07T00:14:46;97503.53;;;14.92;100.00
21869;BME280;11099;41.564;23.296;2024-03-07T00:17:12;97466.78;;;15.05;100.00
21869;BME280;11099;41.564;23.296;2024-03-07T00:27:46;97443.47;;;14.36;100.00
21869;BME280;11099;41.564;23.296;2024-03-07T00:32:55;97505.09;;;14.81;100.00
21869;BME280;11099;41.564;23.296;2024-03-07T00:35:33;97431.53;;;14.33;100.00
21869;BME280;11099;41.564;23.296;2024-03-07T00:38:09;97485.66;;;14.96;100.00
21869;BME280;11099;41.564;23.296;2024-03-07T00:40:46;97522.19;;;15.13;100.00
21869;BME280;11099;41.564;23.296;2024-03-07T00:43:19;97411.22;;;14.32;100.00
21869;BME280;11099;41.564;23.296;2024-03-07T00:45:48;97516.72;;;15.10;100.00
21869;BME280;11099;41.564;23.296;2024-03-07T00:48:20;97464.88;;;14.57;100.00
21869;BME280;11099;41.564;23.296;2024-03-07T00:50:53;97409.44;;;14.24;100.00
21869;BME280;11099;41.564;23.296;2024-03-07T00:53:26;97444.09;;;14.54;100.00
21869;BME280;11099;41.564;23.296;2024-03-07T00:55:58;97512.59;;;15.00;100.00
21869;BME280;11099;41.564;23.296;2024-03-07T00:58:26;97450.91;;;14.51;100.00
21869;BME280;11099;41.564;23.296;2024-03-07T01:01:02;97436.75;;;14.17;100.00
21869;BME280;11099;41.564;23.296;2024-03-07T01:03:33;97404.06;;;14.24;100.00
21869;BME280;11099;41.564;23.296;2024-03-07T01:06:08;97398.94;;;14.31;100.00
21869;BME280;11099;41.564;23.296;2024-03-07T01:08:37;97442.03;;;14.38;100.00
21869;BME280;11099;41.564;23.296;2024-03-07T01:11:14;97409.38;;;14.12;100.00
21869;BME280;11099;41.564;23.296;2024-03-07T01:13:47;97505.44;;;15.04;99.82
21869;BME280;11099;41.564;23.296;2024-03-07T01:16:16;97484.22;;;14.87;99.29
21869;BME280;11099;41.564;23.296;2024-03-07T01:18:56;97515.50;;;15.44;98.38
21869;BME280;11099;41.564;23.296;2024-03-07T01:29:17;97453.00;;;14.45;100.00
21869;BME280;11099;41.564;23.296;2024-03-07T01:41:54;97520.19;;;13.98;100.00
21869;BME280;11099;41.564;23.296;2024-03-07T01:44:58;97512.75;;;14.58;100.00
21869;BME280;11099;41.564;23.296;2024-03-07T02:27:05;97530.59;;;14.33;100.00
21869;BME280;11099;41.564;23.296;2024-03-07T02:29:40;97468.81;;;14.05;100.00
21869;BME280;11099;41.564;23.296;2024-03-07T03:38:05;97484.78;;;15.17;100.00
21869;BME280;11099;41.564;23.296;2024-03-07T04:07:13;97489.78;;;14.03;100.00
21869;BME280;11099;41.564;23.296;2024-03-07T04:09:43;97419.63;;;13.97;100.00
21869;BME280;11099;41.564;23.296;2024-03-07T04:12:13;97390.72;;;13.91;100.00
21869;BME280;11099;41.564;23.296;2024-03-07T05:27:58;97411.63;;;14.10;97.08
21869;BME280;11099;41.564;23.296;2024-03-07T05:30:31;97517.50;;;14.86;97.25
21869;BME280;11099;41.564;23.296;2024-03-07T05:33:05;97438.25;;;14.06;98.19
21869;BME280;11099;41.564;23.296;2024-03-07T05:35:33;97537.75;;;14.29;100.00
21869;BME280;11099;41.564;23.296;2024-03-07T05:37:59;97459.22;;;14.04;100.00
21869;BME280;11099;41.564;23.296;2024-03-07T05:40:27;97495.38;;;14.43;100.00
21869;BME280;11099;41.564;23.296;2024-03-07T05:42:52;97516.41;;;14.54;100.00
21869;BME280;11099;41.564;23.296;2024-03-07T05:45:20;97519.16;;;13.91;100.00
21869;BME280;11099;41.564;23.296;2024-03-07T05:47:45;97503.56;;;13.22;100.00
21869;BME280;11099;41.564;23.296;2024-03-07T05:50:12;97521.84;;;12.64;100.00
21869;BME280;11099;41.564;23.296;2024-03-07T05:52:38;97547.72;;;13.57;100.00
21869;BME280;11099;41.564;23.296;2024-03-07T05:55:04;97436.22;;;12.60;100.00
21869;BME280;11099;41.564;23.296;2024-03-07T05:57:32;97423.75;;;12.73;100.00
21869;BME280;11099;41.564;23.296;2024-03-07T05:59:57;97486.97;;;14.00;100.00
21869;BME280;11099;41.564;23.296;2024-03-07T06:02:24;97516.69;;;14.40;100.00
21869;BME280;11099;41.564;23.296;2024-03-07T06:04:49;97471.75;;;14.45;100.00
21869;BME280;11099;41.564;23.296;2024-03-07T06:07:15;97557.56;;;14.82;100.00
21869;BME280;11099;41.564;23.296;2024-03-07T06:09:41;97464.41;;;14.55;100.00
21869;BME280;11099;41.564;23.296;2024-03-07T06:12:07;97441.38;;;13.75;100.00
21869;BME280;11099;41.564;23.296;2024-03-07T06:14:34;97493.25;;;14.82;100.00
21869;BME280;11099;41.564;23.296;2024-03-07T06:17:01;97545.78;;;15.08;100.00
21869;BME280;11099;41.564;23.296;2024-03-07T06:19:28;97541.53;;;13.65;100.00
21869;BME280;11099;41.564;23.296;2024-03-07T06:21:54;97539.63;;;12.43;100.00
21869;BME280;11099;41.564;23.296;2024-03-07T06:24:21;97540.91;;;13.68;100.00
21869;BME280;11099;41.564;23.296;2024-03-07T06:26:48;97560.25;;;13.65;100.00
21869;BME280;11099;41.564;23.296;2024-03-07T06:29:25;97567.94;;;13.46;100.00
21869;BME280;11099;41.564;23.296;2024-03-07T06:31:52;97571.31;;;12.61;100.00
21869;BME280;11099;41.564;23.296;2024-03-07T06:34:21;97596.88;;;12.88;100.00
21869;BME280;11099;41.564;23.296;2024-03-07T06:36:47;97634.78;;;12.56;100.00
21869;BME280;11099;41.564;23.296;2024-03-07T06:39:13;97597.81;;;12.92;100.00
21869;BME280;11099;41.564;23.296;2024-03-07T06:41:39;97595.06;;;12.46;100.00
21869;BME280;11099;41.564;23.296;2024-03-07T06:44:06;97583.28;;;11.95;100.00
21869;BME280;11099;41.564;23.296;2024-03-07T06:46:32;97588.53;;;11.60;100.00
21869;BME280;11099;41.564;23.296;2024-03-07T06:48:59;97598.72;;;11.18;100.00
21869;BME280;11099;41.564;23.296;2024-03-07T06:51:25;97600.50;;;11.31;100.00
21869;BME280;11099;41.564;23.296;2024-03-07T06:53:50;97576.16;;;11.16;100.00
21869;BME280;11099;41.564;23.296;2024-03-07T06:56:16;97577.94;;;10.98;100.00
21869;BME280;11099;41.564;23.296;2024-03-07T06:58:43;97653.78;;;11.63;100.00
21869;BME280;11099;41.564;23.296;2024-03-07T07:01:10;97693.69;;;11.76;100.00
21869;BME280;11099;41.564;23.296;2024-03-07T07:03:37;97651.94;;;11.80;100.00
21869;BME280;11099;41.564;23.296;2024-03-07T07:06:03;97673.16;;;11.85;100.00
21869;BME280;11099;41.564;23.296;2024-03-07T07:08:32;97659.13;;;12.20;100.00
21869;BME280;11099;41.564;23.296;2024-03-07T07:10:58;97676.38;;;12.13;100.00
21869;BME280;11099;41.564;23.296;2024-03-07T07:13:24;97689.03;;;11.82;100.00
21869;BME280;11099;41.564;23.296;2024-03-07T07:15:50;97683.75;;;12.17;100.00
21869;BME280;11099;41.564;23.296;2024-03-07T07:18:15;97727.81;;;11.97;100.00
21869;BME280;11099;41.564;23.296;2024-03-07T07:20:42;97718.31;;;12.30;100.00
21869;BME280;11099;41.564;23.296;2024-03-07T07:23:07;97757.81;;;11.71;100.00
21869;BME280;11099;41.564;23.296;2024-03-07T07:25:33;97746.59;;;11.83;100.00
21869;BME280;11099;41.564;23.296;2024-03-07T07:27:59;97752.03;;;12.09;100.00
21869;BME280;11099;41.564;23.296;2024-03-07T07:30:25;97755.31;;;12.06;100.00
21869;BME280;11099;41.564;23.296;2024-03-07T07:32:52;97821.75;;;12.73;100.00
21869;BME280;11099;41.564;23.296;2024-03-07T07:35:22;97786.41;;;12.10;100.00
21869;BME280;11099;41.564;23.296;2024-03-07T07:37:51;97777.38;;;12.46;100.00
21869;BME280;11099;41.564;23.296;2024-03-07T07:40:20;97780.69;;;12.52;100.00
21869;BME280;11099;41.564;23.296;2024-03-07T07:42:49;97709.03;;;12.19;100.00
21869;BME280;11099;41.564;23.296;2024-03-07T07:45:17;97681.59;;;11.79;100.00
21869;BME280;11099;41.564;23.296;2024-03-07T07:47:44;97692.53;;;11.69;100.00
21869;BME280;11099;41.564;23.296;2024-03-07T07:50:12;97703.66;;;11.62;100.00
21869;BME280;11099;41.564;23.296;2024-03-07T07:55:20;97665.53;;;11.22;100.00
21869;BME280;11099;41.564;23.296;2024-03-07T07:57:47;97665.34;;;11.49;100.00
21869;BME280;11099;41.564;23.296;2024-03-07T08:00:16;97667.63;;;11.33;100.00
21869;BME280;11099;41.564;23.296;2024-03-07T08:02:55;97704.47;;;11.71;100.00
21869;BME280;11099;41.564;23.296;2024-03-07T08:05:22;97708.91;;;11.45;99.43
21869;BME280;11099;41.564;23.296;2024-03-07T08:07:51;97667.94;;;11.09;99.72
21869;BME280;11099;41.564;23.296;2024-03-07T08:10:21;97653.25;;;10.90;100.00
21869;BME280;11099;41.564;23.296;2024-03-07T08:12:49;97664.28;;;10.74;99.78
21869;BME280;11099;41.564;23.296;2024-03-07T08:15:15;97649.81;;;11.20;98.07
21869;BME280;11099;41.564;23.296;2024-03-07T08:17:44;97660.38;;;11.03;96.68
21869;BME280;11099;41.564;23.296;2024-03-07T08:20:12;97683.69;;;11.51;96.48
21869;BME280;11099;41.564;23.296;2024-03-07T08:22:42;97640.38;;;11.45;95.08
21869;BME280;11099;41.564;23.296;2024-03-07T08:25:09;97691.88;;;11.94;94.20
21869;BME280;11099;41.564;23.296;2024-03-07T08:27:36;97669.31;;;11.69;93.31
21869;BME280;11099;41.564;23.296;2024-03-07T08:30:03;97637.16;;;11.66;93.66
21869;BME280;11099;41.564;23.296;2024-03-07T08:32:34;97664.88;;;11.96;94.64
21869;BME280;11099;41.564;23.296;2024-03-07T08:35:04;97638.53;;;12.11;95.65
21869;BME280;11099;41.564;23.296;2024-03-07T08:37:34;97647.16;;;12.00;96.17
21869;BME280;11099;41.564;23.296;2024-03-07T08:39:59;97636.84;;;12.50;92.38
21869;BME280;11099;41.564;23.296;2024-03-07T08:42:26;97691.91;;;12.11;98.52
21869;BME280;11099;41.564;23.296;2024-03-07T08:44:52;97697.84;;;12.00;100.00
21869;BME280;11099;41.564;23.296;2024-03-07T08:47:18;97619.47;;;10.76;100.00
21869;BME280;11099;41.564;23.296;2024-03-07T08:49:43;97629.66;;;11.76;100.00
21869;BME280;11099;41.564;23.296;2024-03-07T08:52:09;97660.38;;;12.39;100.00
21869;BME280;11099;41.564;23.296;2024-03-07T08:54:35;97613.91;;;12.23;100.00
21869;BME280;11099;41.564;23.296;2024-03-07T08:57:00;97641.78;;;11.91;100.00
21869;BME280;11099;41.564;23.296;2024-03-07T08:59:26;97645.31;;;12.09;100.00
21869;BME280;11099;41.564;23.296;2024-03-07T09:01:51;97673.75;;;12.31;100.00
21869;BME280;11099;41.564;23.296;2024-03-07T09:04:17;97632.88;;;12.30;100.00
21869;BME280;11099;41.564;23.296;2024-03-07T09:06:43;97606.53;;;12.29;100.00
21869;BME280;11099;41.564;23.296;2024-03-07T09:09:11;97660.09;;;12.50;100.00
21869;BME280;11099;41.564;23.296;2024-03-07T09:11:39;97682.69;;;12.26;100.00
21869;BME280;11099;41.564;23.296;2024-03-07T09:14:07;97586.00;;;11.55;100.00
21869;BME280;11099;41.564;23.296;2024-03-07T09:16:35;97660.63;;;11.95;100.00
21869;BME280;11099;41.564;23.296;2024-03-07T09:19:01;97634.00;;;12.29;100.00
21869;BME280;11099;41.564;23.296;2024-03-07T09:21:27;97690.06;;;12.38;100.00
21869;BME280;11099;41.564;23.296;2024-03-07T09:23:52;97628.13;;;11.84;100.00
21869;BME280;11099;41.564;23.296;2024-03-07T09:26:18;97638.44;;;11.77;100.00
21869;BME280;11099;41.564;23.296;2024-03-07T09:28:43;97632.34;;;11.76;100.00
21869;BME280;11099;41.564;23.296;2024-03-07T09:31:09;97658.63;;;12.09;100.00
21869;BME280;11099;41.564;23.296;2024-03-07T09:33:35;97683.75;;;12.17;100.00
21869;BME280;11099;41.564;23.296;2024-03-07T09:36:03;97671.72;;;12.54;100.00
21869;BME280;11099;41.564;23.296;2024-03-07T09:38:30;97682.00;;;13.07;99.00
21869;BME280;11099;41.564;23.296;2024-03-07T09:40:56;97692.91;;;12.93;99.86
21869;BME280;11099;41.564;23.296;2024-03-07T09:43:23;97698.03;;;13.33;98.46
21869;BME280;11099;41.564;23.296;2024-03-07T09:45:49;97683.69;;;13.47;96.05
21869;BME280;11099;41.564;23.296;2024-03-07T09:48:15;97691.47;;;13.69;94.12
21869;BME280;11099;41.564;23.296;2024-03-07T09:50:42;97658.19;;;13.49;94.41
21869;BME280;11099;41.564;23.296;2024-03-07T09:53:09;97633.81;;;13.80;93.70
21869;BME280;11099;41.564;23.296;2024-03-07T09:55:36;97633.28;;;13.19;92.74
21869;BME280;11099;41.564;23.296;2024-03-07T09:58:04;97670.06;;;13.69;93.01
21869;BME280;11099;41.564;23.296;2024-03-07T10:00:32;97631.69;;;13.35;93.88
21869;BME280;11099;41.564;23.296;2024-03-07T10:03:05;97609.97;;;13.37;93.85
21869;BME280;11099;41.564;23.296;2024-03-07T10:05:32;97605.19;;;12.96;94.20
21869;BME280;11099;41.564;23.296;2024-03-07T10:07:59;97576.00;;;13.29;94.84
21869;BME280;11099;41.564;23.296;2024-03-07T10:10:24;97564.31;;;12.95;95.62
21869;BME280;11099;41.564;23.296;2024-03-07T10:12:51;97599.28;;;13.28;96.01
21869;BME280;11099;41.564;23.296;2024-03-07T10:15:29;97567.69;;;13.30;97.76
21869;BME280;11099;41.564;23.296;2024-03-07T10:17:55;97607.66;;;13.86;97.92
21869;BME280;11099;41.564;23.296;2024-03-07T10:20:21;97632.63;;;14.40;95.29
21869;BME280;11099;41.564;23.296;2024-03-07T10:22:48;97599.41;;;13.70;96.38
21869;BME280;11099;41.564;23.296;2024-03-07T10:25:18;97622.38;;;14.63;99.06
21869;BME280;11099;41.564;23.296;2024-03-07T10:52:13;97611.69;;;16.19;84.20
21869;BME280;11099;41.564;23.296;2024-03-07T10:54:22;97598.63;;;15.19;90.83
21869;BME280;11099;41.564;23.296;2024-03-07T10:59:49;97496.16;;;15.38;85.22
21869;BME280;11099;41.564;23.296;2024-03-07T11:15:39;97591.97;;;16.15;77.10
21869;BME280;11099;41.564;23.296;2024-03-07T11:18:37;97586.09;;;16.37;78.74
21869;BME280;11099;41.564;23.296;2024-03-07T11:21:42;97595.78;;;16.14;77.75
21869;BME280;11099;41.564;23.296;2024-03-07T11:27:14;97494.16;;;15.11;79.79
21869;BME280;11099;41.564;23.296;2024-03-07T11:30:06;97503.31;;;14.85;81.95
21869;BME280;11099;41.564;23.296;2024-03-07T11:33:09;97533.97;;;14.63;79.46
21869;BME280;11099;41.564;23.296;2024-03-07T11:35:40;97606.25;;;15.42;81.13
21869;BME280;11099;41.564;23.296;2024-03-07T11:38:19;97611.38;;;14.77;83.05
21869;BME280;11099;41.564;23.296;2024-03-07T11:40:58;97619.41;;;14.77;83.14
21869;BME280;11099;41.564;23.296;2024-03-07T11:43:58;97509.47;;;14.19;81.18
21869;BME280;11099;41.564;23.296;2024-03-07T11:47:15;97512.56;;;14.42;81.27
21869;BME280;11099;41.564;23.296;2024-03-07T11:54:17;97600.16;;;14.96;79.19
21869;BME280;11099;41.564;23.296;2024-03-07T11:59:35;97513.38;;;15.00;78.05
21869;BME280;11099;41.564;23.296;2024-03-07T12:02:20;97525.22;;;15.61;76.81
21869;BME280;11099;41.564;23.296;2024-03-07T12:04:54;97462.22;;;15.18;75.71
21869;BME280;11099;41.564;23.296;2024-03-07T12:07:23;97536.66;;;14.75;78.95
21869;BME280;11099;41.564;23.296;2024-03-07T12:09:52;97535.72;;;15.17;79.59
21869;BME280;11099;41.564;23.296;2024-03-07T12:12:22;97501.94;;;14.67;80.05
21869;BME280;11099;41.564;23.296;2024-03-07T12:14:58;97539.63;;;14.95;76.56
21869;BME280;11099;41.564;23.296;2024-03-07T12:17:41;97451.25;;;14.86;74.02
21869;BME280;11099;41.564;23.296;2024-03-07T12:20:14;97521.50;;;15.04;75.99
21869;BME280;11099;41.564;23.296;2024-03-07T12:23:12;97496.94;;;15.39;74.48
21869;BME280;11099;41.564;23.296;2024-03-07T12:25:44;97469.13;;;15.19;73.99
21869;BME280;11099;41.564;23.296;2024-03-07T12:28:25;97415.09;;;14.92;75.02
21869;BME280;11099;41.564;23.296;2024-03-07T12:30:55;97432.69;;;15.30;75.68
21869;BME280;11099;41.564;23.296;2024-03-07T12:33:28;97424.84;;;15.37;73.46
21869;BME280;11099;41.564;23.296;2024-03-07T12:36:04;97500.34;;;15.76;72.62
21869;BME280;11099;41.564;23.296;2024-03-07T12:38:38;97488.38;;;16.14;74.15
21869;BME280;11099;41.564;23.296;2024-03-07T12:52:35;97371.59;;;16.86;63.72
21869;BME280;11099;41.564;23.296;2024-03-07T12:57:40;97350.50;;;16.22;63.65
21869;BME280;11099;41.564;23.296;2024-03-07T13:00:31;97464.19;;;17.56;63.07
21869;BME280;11099;41.564;23.296;2024-03-07T13:03:28;97367.28;;;16.50;63.28
21869;BME280;11099;41.564;23.296;2024-03-07T13:06:20;97377.13;;;17.09;59.20
21869;BME280;11099;41.564;23.296;2024-03-07T13:09:35;97447.69;;;17.93;58.48
21869;BME280;11099;41.564;23.296;2024-03-07T13:12:51;97437.22;;;17.17;62.67
21869;BME280;11099;41.564;23.296;2024-03-07T13:15:18;97407.50;;;16.47;62.33
21869;BME280;11099;41.564;23.296;2024-03-07T13:18:03;97359.31;;;15.22;65.28
21869;BME280;11099;41.564;23.296;2024-03-07T13:20:38;97376.91;;;15.76;65.43
21869;BME280;11099;41.564;23.296;2024-03-07T13:23:10;97354.88;;;15.42;65.55
21869;BME280;11099;41.564;23.296;2024-03-07T13:25:36;97379.56;;;16.04;66.50
21869;BME280;11099;41.564;23.296;2024-03-07T13:28:09;97450.00;;;16.13;63.05
21869;BME280;11099;41.564;23.296;2024-03-07T13:30:40;97432.13;;;16.49;63.68
21869;BME280;11099;41.564;23.296;2024-03-07T13:33:07;97411.84;;;16.67;61.90
21869;BME280;11099;41.564;23.296;2024-03-07T13:35:33;97436.81;;;16.99;62.05
21869;BME280;11099;41.564;23.296;2024-03-07T13:37:59;97406.63;;;16.90;61.10
21869;BME280;11099;41.564;23.296;2024-03-07T13:40:25;97398.94;;;17.24;60.57
21869;BME280;11099;41.564;23.296;2024-03-07T13:43:01;97367.03;;;16.87;62.48
21869;BME280;11099;41.564;23.296;2024-03-07T13:45:28;97363.75;;;16.78;61.63
21869;BME280;11099;41.564;23.296;2024-03-07T13:47:58;97395.91;;;16.27;60.46
21869;BME280;11099;41.564;23.296;2024-03-07T13:50:27;97431.50;;;16.24;64.77
21869;BME280;11099;41.564;23.296;2024-03-07T13:52:56;97384.19;;;16.82;61.51
21869;BME280;11099;41.564;23.296;2024-03-07T14:07:33;97413.69;;;17.69;56.28
21869;BME280;11099;41.564;23.296;2024-03-07T14:10:44;97372.56;;;16.94;57.40
21869;BME280;11099;41.564;23.296;2024-03-07T14:13:52;97392.53;;;17.12;55.46
21869;BME280;11099;41.564;23.296;2024-03-07T14:31:13;97361.25;;;18.01;52.83
21869;BME280;11099;41.564;23.296;2024-03-07T14:36:53;97386.69;;;17.81;49.41
21869;BME280;11099;41.564;23.296;2024-03-07T14:39:22;97389.59;;;17.18;50.24
21869;BME280;11099;41.564;23.296;2024-03-07T14:42:05;97375.19;;;16.43;52.17
21869;BME280;11099;41.564;23.296;2024-03-07T14:44:37;97344.16;;;17.32;52.06
21869;BME280;11099;41.564;23.296;2024-03-07T14:47:06;97352.56;;;17.30;48.91
21869;BME280;11099;41.564;23.296;2024-03-07T14:49:37;97336.59;;;17.37;45.50
21869;BME280;11099;41.564;23.296;2024-03-07T14:52:03;97395.94;;;17.83;49.19
21869;BME280;11099;41.564;23.296;2024-03-07T14:54:37;97357.75;;;17.78;49.81
21869;BME280;11099;41.564;23.296;2024-03-07T14:57:04;97387.72;;;17.37;50.86
21869;BME280;11099;41.564;23.296;2024-03-07T14:59:31;97353.47;;;17.19;51.49
21869;BME280;11099;41.564;23.296;2024-03-07T15:01:58;97383.25;;;17.64;50.76
21869;BME280;11099;41.564;23.296;2024-03-07T15:04:26;97360.31;;;17.32;52.99
21869;BME280;11099;41.564;23.296;2024-03-07T15:06:53;97404.09;;;17.87;52.53
21869;BME280;11099;41.564;23.296;2024-03-07T15:09:22;97356.22;;;18.00;50.23
21869;BME280;11099;41.564;23.296;2024-03-07T15:11:48;97362.09;;;17.82;52.06
21869;BME280;11099;41.564;23.296;2024-03-07T15:14:18;97378.50;;;17.38;54.55
21869;BME280;11099;41.564;23.296;2024-03-07T15:16:44;97333.91;;;17.37;52.44
21869;BME280;11099;41.564;23.296;2024-03-07T15:19:10;97350.41;;;17.75;53.76
21869;BME280;11099;41.564;23.296;2024-03-07T15:21:36;97363.50;;;17.02;54.36
21869;BME280;11099;41.564;23.296;2024-03-07T15:24:06;97355.94;;;16.25;55.96
21869;BME280;11099;41.564;23.296;2024-03-07T15:26:32;97334.44;;;15.94;57.25
21869;BME280;11099;41.564;23.296;2024-03-07T15:28:59;97385.94;;;16.43;57.51
21869;BME280;11099;41.564;23.296;2024-03-07T15:31:26;97359.38;;;15.94;56.49
21869;BME280;11099;41.564;23.296;2024-03-07T15:33:52;97407.94;;;16.96;53.19
21869;BME280;11099;41.564;23.296;2024-03-07T15:36:21;97337.22;;;16.76;51.04
21869;BME280;11099;41.564;23.296;2024-03-07T15:38:48;97377.28;;;17.17;52.13
21869;BME280;11099;41.564;23.296;2024-03-07T15:41:14;97396.59;;;17.22;49.50
21869;BME280;11099;41.564;23.296;2024-03-07T15:43:41;97365.03;;;16.21;52.35
21869;BME280;11099;41.564;23.296;2024-03-07T15:46:08;97395.69;;;16.20;51.79
21869;BME280;11099;41.564;23.296;2024-03-07T15:48:36;97429.56;;;16.84;50.75
21869;BME280;11099;41.564;23.296;2024-03-07T15:51:02;97420.91;;;17.26;50.58
21869;BME280;11099;41.564;23.296;2024-03-07T15:53:29;97442.91;;;16.80;49.64
21869;BME280;11099;41.564;23.296;2024-03-07T15:55:55;97379.94;;;16.18;51.95
21869;BME280;11099;41.564;23.296;2024-03-07T15:58:21;97402.81;;;15.84;58.57
21869;BME280;11099;41.564;23.296;2024-03-07T16:00:48;97417.72;;;16.57;58.10
21869;BME280;11099;41.564;23.296;2024-03-07T16:03:14;97423.63;;;16.63;57.11
21869;BME280;11099;41.564;23.296;2024-03-07T16:05:41;97408.28;;;16.47;57.33
21869;BME280;11099;41.564;23.296;2024-03-07T16:08:13;97412.34;;;16.25;58.64
21869;BME280;11099;41.564;23.296;2024-03-07T16:10:40;97452.84;;;16.64;59.51
21869;BME280;11099;41.564;23.296;2024-03-07T16:13:09;97405.84;;;16.42;58.81
21869;BME280;11099;41.564;23.296;2024-03-07T16:15:38;97445.03;;;16.43;60.36
21869;BME280;11099;41.564;23.296;2024-03-07T16:18:04;97430.97;;;16.34;60.29
21869;BME280;11099;41.564;23.296;2024-03-07T16:20:32;97438.84;;;16.11;61.57
21869;BME280;11099;41.564;23.296;2024-03-07T16:23:01;97408.53;;;15.42;63.80
21869;BME280;11099;41.564;23.296;2024-03-07T16:25:31;97466.78;;;15.82;64.96
21869;BME280;11099;41.564;23.296;2024-03-07T16:27:59;97414.13;;;15.49;64.06
21869;BME280;11099;41.564;23.296;2024-03-07T16:30:26;97467.53;;;15.42;64.57
21869;BME280;11099;41.564;23.296;2024-03-07T16:32:55;97462.88;;;15.39;65.07
21869;BME280;11099;41.564;23.296;2024-03-07T16:35:29;97377.69;;;14.84;65.61
21869;BME280;11099;41.564;23.296;2024-03-07T16:38:16;97367.94;;;14.42;67.56
21869;BME280;11099;41.564;23.296;2024-03-07T16:40:43;97409.72;;;14.56;67.65
21869;BME280;11099;41.564;23.296;2024-03-07T16:43:16;97407.59;;;14.49;68.71
21869;BME280;11099;41.564;23.296;2024-03-07T16:45:43;97387.72;;;14.05;69.71
21869;BME280;11099;41.564;23.296;2024-03-07T16:48:13;97421.16;;;14.44;69.06
21869;BME280;11099;41.564;23.296;2024-03-07T16:50:55;97387.72;;;14.05;69.82
21869;BME280;11099;41.564;23.296;2024-03-07T16:53:23;97382.97;;;14.22;69.10
21869;BME280;11099;41.564;23.296;2024-03-07T16:55:49;97425.44;;;14.45;69.71
21869;BME280;11099;41.564;23.296;2024-03-07T16:58:15;97416.69;;;14.23;68.88
21869;BME280;11099;41.564;23.296;2024-03-07T17:00:43;97463.44;;;14.38;70.24
21869;BME280;11099;41.564;23.296;2024-03-07T17:03:09;97475.78;;;14.18;71.01
21869;BME280;11099;41.564;23.296;2024-03-07T17:05:40;97468.19;;;14.54;69.59
21869;BME280;11099;41.564;23.296;2024-03-07T17:08:09;97411.94;;;13.96;70.58
21869;BME280;11099;41.564;23.296;2024-03-07T17:10:38;97409.94;;;13.72;71.16
21869;BME280;11099;41.564;23.296;2024-03-07T17:13:06;97435.06;;;14.13;70.09
21869;BME280;11099;41.564;23.296;2024-03-07T17:15:42;97389.81;;;13.87;70.14
21869;BME280;11099;41.564;23.296;2024-03-07T17:18:13;97368.91;;;13.68;70.25
21869;BME280;11099;41.564;23.296;2024-03-07T17:20:42;97381.06;;;13.78;69.07
21869;BME280;11099;41.564;23.296;2024-03-07T17:23:10;97373.91;;;13.36;70.15
21869;BME280;11099;41.564;23.296;2024-03-07T17:28:33;97391.38;;;13.88;68.97
21869;BME280;11099;41.564;23.296;2024-03-07T17:31:32;97431.63;;;14.24;68.25
21869;BME280;11099;41.564;23.296;2024-03-07T17:34:06;97435.84;;;13.80;68.76
21869;BME280;11099;41.564;23.296;2024-03-07T17:36:32;97403.94;;;14.08;68.14
21869;BME280;11099;41.564;23.296;2024-03-07T17:39:02;97432.97;;;14.31;67.43
21869;BME280;11099;41.564;23.296;2024-03-07T17:41:29;97406.94;;;14.52;67.11
21869;BME280;11099;41.564;23.296;2024-03-07T18:07:19;97388.75;;;12.96;77.50
21869;BME280;11099;41.564;23.296;2024-03-07T18:15:51;97447.44;;;12.83;80.76
21869;BME280;11099;41.564;23.296;2024-03-07T18:18:59;97498.91;;;13.01;80.47
21869;BME280;11099;41.564;23.296;2024-03-07T18:24:11;97404.53;;;12.88;78.24
21869;BME280;11099;41.564;23.296;2024-03-07T18:27:15;97486.91;;;13.45;76.76
21869;BME280;11099;41.564;23.296;2024-03-07T18:33:31;97498.44;;;14.00;74.00
21869;BME280;11099;41.564;23.296;2024-03-07T18:36:32;97503.75;;;14.09;71.67
21869;BME280;11099;41.564;23.296;2024-03-07T18:42:44;97470.31;;;13.94;70.33
21869;BME280;11099;41.564;23.296;2024-03-07T18:45:21;97490.75;;;14.53;70.10
21869;BME280;11099;41.564;23.296;2024-03-07T18:48:03;97445.78;;;13.00;74.86
21869;BME280;11099;41.564;23.296;2024-03-07T18:50:40;97506.34;;;13.55;75.13
21869;BME280;11099;41.564;23.296;2024-03-07T18:53:20;97464.47;;;13.38;74.03
21869;BME280;11099;41.564;23.296;2024-03-07T18:56:05;97477.78;;;13.47;73.88
21869;BME280;11099;41.564;23.296;2024-03-07T18:58:56;97448.09;;;13.39;73.31
21869;BME280;11099;41.564;23.296;2024-03-07T19:01:28;97530.16;;;14.10;72.34
21869;BME280;11099;41.564;23.296;2024-03-07T19:04:09;97506.75;;;14.40;71.61
21869;BME280;11099;41.564;23.296;2024-03-07T19:07:01;97508.63;;;14.61;70.53
21869;BME280;11099;41.564;23.296;2024-03-07T19:15:28;97507.41;;;14.04;72.95
21869;BME280;11099;41.564;23.296;2024-03-07T19:18:14;97477.97;;;14.04;72.07
21869;BME280;11099;41.564;23.296;2024-03-07T19:21:09;97478.47;;;13.35;74.55
21869;BME280;11099;41.564;23.296;2024-03-07T19:27:29;97533.25;;;13.58;74.55
21869;BME280;11099;41.564;23.296;2024-03-07T19:33:18;97481.00;;;14.15;71.07
21869;BME280;11099;41.564;23.296;2024-03-07T19:35:52;97565.94;;;14.81;70.79